Time;durP1;ratioP1;P1;durP2;ratioP2;P2;SDS_P1;SDS_P2;PMS_P1;PMS_P2;Temp;Humidity;BMP_temperature;BMP_pressure;BME280_temperature;BME280_humidity;BME280_pressure;Samples;Min_cycle;Max_cycle;Signal;HPM_P1;HPM_P2
2022/10/11 00:01:12;;;;;;;;;38.00;31.00;;;;;9.79;100.00;100164.59;6279752;20;3600313;-60
2022/10/11 00:03:41;;;;;;;;;35.00;32.00;;;;;9.88;100.00;100165.00;6277755;20;3597168;-59
2022/10/11 00:06:10;;;;;;;;;41.00;33.00;;;;;9.85;100.00;100162.47;6281390;20;3590934;-59
2022/10/11 00:08:38;;;;;;;;;37.33;31.33;;;;;9.83;100.00;100159.00;6279729;20;3598206;-59
2022/10/11 00:11:09;;;;;;;;;38.00;34.00;;;;;9.81;100.00;100151.97;6273034;20;2858793;-59
2022/10/11 00:13:37;;;;;;;;;40.67;34.00;;;;;9.45;100.00;100156.44;6311683;20;3591896;-58
2022/10/11 00:16:10;;;;;;;;;40.00;33.00;;;;;9.59;100.00;100153.06;6275563;20;3601273;-59
2022/10/11 00:18:39;;;;;;;;;31.33;29.67;;;;;9.57;100.00;100154.09;6309493;20;3601327;-64
2022/10/11 00:21:13;;;;;;;;;39.67;30.00;;;;;9.88;100.00;100148.91;6277937;20;3629444;-59
2022/10/11 00:23:43;;;;;;;;;31.67;31.67;;;;;9.62;100.00;100146.69;6274369;20;3598260;-60
2022/10/11 00:26:13;;;;;;;;;36.67;33.33;;;;;9.73;100.00;100144.31;6275959;20;3602458;-59
2022/10/11 00:28:42;;;;;;;;;37.00;32.67;;;;;9.62;100.00;100146.69;6313645;20;3617954;-59
2022/10/11 00:31:15;;;;;;;;;42.33;31.33;;;;;9.33;100.00;100130.22;6277361;20;3636750;-59
2022/10/11 00:33:44;;;;;;;;;39.00;33.33;;;;;9.39;100.00;100132.59;6276638;20;3609638;-59
2022/10/11 00:36:16;;;;;;;;;30.33;28.00;;;;;9.69;100.00;100137.38;6305106;20;2854538;-59
2022/10/11 00:38:45;;;;;;;;;36.00;31.67;;;;;9.62;100.00;100135.97;6306213;20;3617076;-59
2022/10/11 00:41:16;;;;;;;;;39.67;33.67;;;;;9.50;100.00;100132.06;6310180;20;3622185;-59
2022/10/11 00:43:45;;;;;;;;;46.25;34.50;;;;;9.38;100.00;100122.84;6276251;20;3624252;-59
2022/10/11 00:46:17;;;;;;;;;40.33;35.00;;;;;9.46;100.00;100130.50;6306171;20;3610663;-59
2022/10/11 00:49:18;;;;;;;;;39.00;31.67;;;;;9.50;100.00;100128.50;6278240;20;3615921;-59
2022/10/11 00:51:55;;;;;;;;;37.00;31.33;;;;;9.76;100.00;100138.78;6308085;20;3618976;-59
2022/10/11 00:54:29;;;;;;;;;34.00;30.00;;;;;9.65;100.00;100133.13;6274364;20;3604579;-60
2022/10/11 00:57:06;;;;;;;;;43.00;36.00;;;;;9.59;100.00;100125.41;6308668;20;3606477;-59
2022/10/11 00:59:42;;;;;;;;;53.00;37.00;;;;;9.44;100.00;100135.91;6273007;20;2862868;-59
2022/10/11 01:02:13;;;;;;;;;56.00;43.33;;;;;9.49;100.00;100130.34;6307698;20;3621154;-59
2022/10/11 01:04:43;;;;;;;;;37.25;30.50;;;;;9.55;100.00;100129.16;6310803;20;3618125;-59
2022/10/11 01:07:12;;;;;;;;;36.00;33.67;;;;;9.35;100.00;100128.34;6304959;20;3613066;-59
2022/10/11 01:09:42;;;;;;;;;41.00;31.00;;;;;9.54;100.00;100130.13;6275946;20;3620112;-59
2022/10/11 01:12:26;;;;;;;;;41.25;32.00;;;;;9.50;100.00;100136.56;6309431;20;3637797;-59
2022/10/11 01:15:52;;;;;;;;;52.33;40.00;;;;;9.41;100.00;100132.53;6310769;20;2872311;-59
2022/10/11 01:18:48;;;;;;;;;53.33;40.33;;;;;9.05;100.00;100135.19;6313003;20;3621118;-59
2022/10/11 01:21:42;;;;;;;;;54.67;40.33;;;;;8.84;100.00;100137.09;6310177;20;2876554;-59
2022/10/11 01:25:11;;;;;;;;;46.67;35.00;;;;;8.99;100.00;100131.00;6311915;20;3625317;-59
2022/10/11 01:28:07;;;;;;;;;44.33;37.00;;;;;9.16;100.00;100127.50;6284424;20;3614859;-59
2022/10/11 01:30:38;;;;;;;;;53.33;39.00;;;;;9.29;100.00;100123.28;6278552;20;3618023;-59
2022/10/11 01:33:24;;;;;;;;;43.67;36.00;;;;;9.18;100.00;100126.47;6312748;20;2861708;-59
2022/10/11 01:35:59;;;;;;;;;55.00;44.00;;;;;9.08;100.00;100127.00;6312890;20;2665895;-59
2022/10/11 01:38:48;;;;;;;;;52.67;40.33;;;;;9.22;100.00;100116.50;6308581;20;3609744;-59
2022/10/11 01:41:30;;;;;;;;;60.33;45.00;;;;;9.19;100.00;100133.59;6313161;20;3628350;-59
2022/10/11 01:44:03;;;;;;;;;62.33;44.33;;;;;9.16;100.00;100132.84;6308855;20;3627486;-60
2022/10/11 01:46:33;;;;;;;;;61.00;43.00;;;;;9.04;100.00;100136.16;6306668;20;3639998;-60
2022/10/11 01:49:04;;;;;;;;;54.00;40.00;;;;;9.16;100.00;100140.88;6310910;20;3609612;-59
2022/10/11 01:51:42;;;;;;;;;38.00;29.67;;;;;9.09;100.00;100142.16;6310907;20;3612730;-60
2022/10/11 01:55:08;;;;;;;;;36.33;31.67;;;;;9.23;100.00;100127.13;6279026;20;2861798;-59
2022/10/11 01:58:06;;;;;;;;;36.33;30.67;;;;;8.94;100.00;100127.69;6313986;20;3616899;-59
2022/10/11 02:01:13;;;;;;;;;33.33;27.33;;;;;8.90;100.00;100118.03;6282182;20;3589977;-59
2022/10/11 02:04:39;;;;;;;;;29.00;27.00;;;;;8.48;100.00;100122.69;6284322;20;2848276;-59
2022/10/11 02:07:56;;;;;;;;;41.00;34.00;;;;;8.47;100.00;100112.88;6308173;20;2848325;-60
2022/10/11 02:11:00;;;;;;;;;38.67;33.00;;;;;8.60;100.00;100117.69;6272971;20;3612773;-59
2022/10/11 02:13:57;;;;;;;;;125.00;89.33;;;;;8.59;100.00;100119.50;6304108;20;3710725;-59
2022/10/11 02:16:41;;;;;;;;;81.67;56.00;;;;;8.68;100.00;100111.03;6270038;20;3662861;-59
2022/10/11 02:19:17;;;;;;;;;76.33;58.00;;;;;8.63;100.00;100114.88;6274773;20;3635868;-59
2022/10/11 02:21:57;;;;;;;;;88.00;65.25;;;;;8.80;100.00;100109.59;6307355;20;4440042;-59
2022/10/11 02:24:38;;;;;;;;;88.67;59.00;;;;;8.66;100.00;100106.69;6305841;20;3669019;-59
2022/10/11 02:27:11;;;;;;;;;90.00;59.00;;;;;8.87;100.00;100110.16;6277206;20;3681580;-59
2022/10/11 02:29:43;;;;;;;;;79.67;56.00;;;;;8.98;100.00;100095.31;6278866;20;3644157;-60
2022/10/11 02:32:16;;;;;;;;;71.33;51.00;;;;;8.78;100.00;100112.34;6275917;20;3647195;-59
2022/10/11 02:34:59;;;;;;;;;60.00;40.33;;;;;8.64;100.00;100114.81;6276921;20;2867039;-59
2022/10/11 02:37:51;;;;;;;;;68.00;50.00;;;;;8.75;100.00;100099.09;6307953;20;3630537;-60
2022/10/11 02:40:31;;;;;;;;;49.00;41.67;;;;;8.86;100.00;100106.63;6305788;20;2857611;-59
2022/10/11 02:43:12;;;;;;;;;60.67;47.00;;;;;8.79;100.00;100102.47;6310330;20;3607637;-59
2022/10/11 02:45:57;;;;;;;;;70.33;54.33;;;;;8.93;100.00;100100.03;6308880;20;3632689;-60
2022/10/11 02:48:28;;;;;;;;;63.00;48.00;;;;;8.95;100.00;100086.56;6308361;20;3631620;-59
2022/10/11 02:50:57;;;;;;;;;52.00;42.50;;;;;9.04;100.00;100101.31;6303002;20;2848161;-59
2022/10/11 02:53:27;;;;;;;;;39.00;35.00;;;;;9.05;100.00;100111.09;6276388;20;2862896;-60
2022/10/11 02:55:56;;;;;;;;;38.50;33.50;;;;;8.94;100.00;100106.25;6309377;20;2857585;-59
2022/10/11 02:58:26;;;;;;;;;37.67;35.33;;;;;8.94;100.00;100106.25;6280906;20;2852480;-60
2022/10/11 03:00:54;;;;;;;;;28.67;26.67;;;;;8.76;100.00;100113.34;6312913;20;3581533;-59
2022/10/11 03:03:23;;;;;;;;;31.50;29.00;;;;;9.00;100.00;100101.47;6274745;20;2840927;-60
2022/10/11 03:05:59;;;;;;;;;29.00;25.50;;;;;9.15;100.00;100112.38;6277855;20;2846102;-60
2022/10/11 03:08:28;;;;;;;;;25.50;22.00;;;;;9.24;100.00;100125.31;6278837;20;2500442;-59
2022/10/11 03:10:57;;;;;;;;;22.00;19.00;;;;;9.07;100.00;100130.63;6280035;20;2837770;-60
2022/10/11 03:13:25;;;;;;;;;24.50;20.00;;;;;9.15;100.00;100125.78;6277951;20;2839861;-59
2022/10/11 03:15:54;;;;;;;;;24.00;23.00;;;;;9.20;100.00;100129.97;6278795;20;2843084;-60
2022/10/11 03:18:31;;;;;;;;;25.00;20.00;;;;;9.43;100.00;100131.50;6278438;20;2835753;-58
2022/10/11 03:20:59;;;;;;;;;19.50;17.50;;;;;9.49;100.00;100134.84;6276204;20;2500300;-60
2022/10/11 03:23:27;;;;;;;;;20.00;20.00;;;;;9.45;100.00;100137.66;6275751;20;2837749;-59
2022/10/11 03:25:55;;;;;;;;;28.50;23.00;;;;;9.47;100.00;100137.59;6274635;20;2500302;-56
2022/10/11 03:28:24;;;;;;;;;24.00;21.33;;;;;9.36;100.00;100134.56;6281223;20;3573218;-55
2022/10/11 03:30:53;;;;;;;;;26.50;23.00;;;;;9.52;100.00;100134.69;6309705;20;2833615;-55
2022/10/11 03:33:21;;;;;;;;;28.00;25.00;;;;;9.56;100.00;100122.88;6278684;20;2839883;-54
2022/10/11 03:35:50;;;;;;;;;30.00;23.50;;;;;9.50;100.00;100126.69;6276042;20;2835771;-56
2022/10/11 03:38:22;;;;;;;;;32.00;24.67;;;;;9.43;100.00;100130.66;6280233;20;2864943;-56
2022/10/11 03:40:51;;;;;;;;;31.00;24.00;;;;;9.28;100.00;100124.22;6312702;20;3590939;-57
2022/10/11 03:43:20;;;;;;;;;28.67;25.00;;;;;9.17;100.00;100119.41;6276431;20;2851358;-56
2022/10/11 03:45:49;;;;;;;;;28.50;24.50;;;;;9.09;100.00;100120.72;6309756;20;2858676;-55
2022/10/11 03:48:18;;;;;;;;;28.00;22.00;;;;;9.02;100.00;100125.50;6280651;20;2846082;-56
2022/10/11 03:50:47;;;;;;;;;21.00;19.50;;;;;9.36;100.00;100129.22;6275422;20;2487751;-53
2022/10/11 03:53:15;;;;;;;;;25.50;23.00;;;;;9.34;100.00;100121.22;6278546;20;2851771;-54
2022/10/11 03:55:44;;;;;;;;;22.00;20.50;;;;;9.35;100.00;100128.34;6277500;20;2826429;-54
2022/10/11 03:58:13;;;;;;;;;22.50;21.50;;;;;9.13;100.00;100128.50;6279103;20;2831560;-55
2022/10/11 04:00:41;;;;;;;;;21.00;21.00;;;;;9.28;100.00;100126.03;6279534;20;2841981;-55
2022/10/11 04:03:10;;;;;;;;;22.00;22.00;;;;;9.32;100.00;100116.91;6277271;20;2837844;-55
2022/10/11 04:05:39;;;;;;;;;25.00;22.00;;;;;9.23;100.00;100113.72;6276914;20;2849312;-55
2022/10/11 04:08:08;;;;;;;;;22.67;19.00;;;;;9.01;100.00;100126.44;6278521;20;3567052;-54
2022/10/11 04:10:40;;;;;;;;;30.00;20.00;;;;;9.10;100.00;100123.31;6273797;20;2850311;-52
2022/10/11 04:13:10;;;;;;;;;24.50;20.00;;;;;9.10;100.00;100112.59;6275441;20;2500384;-56
2022/10/11 04:15:40;;;;;;;;;28.00;24.00;;;;;9.20;100.00;100113.88;6277558;20;2847285;-53
2022/10/11 04:18:09;;;;;;;;;21.00;15.67;;;;;9.24;100.00;100119.94;6273963;20;3556643;-56
2022/10/11 04:20:37;;;;;;;;;26.00;21.00;;;;;9.32;100.00;100128.50;6270767;20;2500315;-56
2022/10/11 04:23:06;;;;;;;;;27.00;21.50;;;;;9.41;100.00;100130.72;6272153;20;2845301;-56
2022/10/11 04:25:38;;;;;;;;;22.00;21.00;;;;;9.52;100.00;100132.84;6274157;20;2835812;-56
2022/10/11 04:28:08;;;;;;;;;22.00;20.50;;;;;9.61;100.00;100144.91;6275921;20;2844209;-60
2022/10/11 04:30:36;;;;;;;;;21.00;20.00;;;;;9.64;100.00;100144.78;6277989;20;2829434;-59
2022/10/11 04:33:05;;;;;;;;;21.00;19.50;;;;;9.51;100.00;100144.53;6272919;20;2839887;-60
2022/10/11 04:35:33;;;;;;;;;23.00;21.00;;;;;9.61;100.00;100144.91;6277273;20;2841988;-59
2022/10/11 04:38:02;;;;;;;;;21.50;19.50;;;;;9.66;100.00;100149.13;6277937;20;2831678;-59
2022/10/11 04:40:30;;;;;;;;;20.50;16.00;;;;;9.60;100.00;100146.75;6277704;20;2826463;-59
2022/10/11 04:42:59;;;;;;;;;28.00;25.50;;;;;9.76;100.00;100154.88;6275582;20;2841938;-59
2022/10/11 04:45:28;;;;;;;;;23.00;21.50;;;;;9.67;100.00;100156.22;6276842;20;2844027;-59
2022/10/11 04:47:57;;;;;;;;;23.00;22.50;;;;;9.75;100.00;100161.19;6276156;20;2826484;-59
2022/10/11 04:50:26;;;;;;;;;25.00;25.00;;;;;9.85;100.00;100157.09;6283342;20;2839258;-60
2022/10/11 04:52:54;;;;;;;;;24.50;22.00;;;;;9.78;100.00;100157.50;6280525;20;2844072;-60
2022/10/11 04:55:23;;;;;;;;;22.00;20.00;;;;;9.96;100.00;100153.00;6279474;20;2833777;-59
2022/10/11 04:57:52;;;;;;;;;34.33;30.00;;;;;10.00;100.00;100151.88;6282505;20;2859886;-60
2022/10/11 05:00:22;;;;;;;;;54.33;40.00;;;;;10.01;100.00;100153.66;6308073;20;3625377;-55
2022/10/11 05:02:52;;;;;;;;;51.00;35.33;;;;;10.01;100.00;100151.81;6313601;20;2853550;-53
2022/10/11 05:05:22;;;;;;;;;48.67;35.67;;;;;10.03;100.00;100151.72;6309948;20;2872301;-54
2022/10/11 05:07:50;;;;;;;;;44.00;35.00;;;;;10.02;100.00;100160.72;6314776;20;3610671;-54
2022/10/11 05:10:20;;;;;;;;;46.67;35.00;;;;;10.01;100.00;100159.88;6277376;20;3602338;-57
2022/10/11 05:12:49;;;;;;;;;48.33;37.00;;;;;10.19;100.00;100152.69;6313764;20;3594152;-57
2022/10/11 05:15:18;;;;;;;;;39.00;32.00;;;;;9.94;100.00;100145.03;6279894;20;3609770;-57
2022/10/11 05:17:47;;;;;;;;;28.00;24.00;;;;;9.85;100.00;100143.69;6311617;20;2839906;-57
2022/10/11 05:20:16;;;;;;;;;26.50;21.00;;;;;10.18;100.00;100140.19;6278980;20;2827394;-57
2022/10/11 05:22:44;;;;;;;;;20.00;20.00;;;;;10.20;100.00;100154.41;6277641;20;2500280;-56
2022/10/11 05:25:12;;;;;;;;;21.00;19.00;;;;;10.28;100.00;100162.94;6277996;20;2841955;-54
2022/10/11 05:27:42;;;;;;;;;25.00;24.00;;;;;10.09;100.00;100156.78;6292262;20;2844366;-55
2022/10/11 05:30:11;;;;;;;;;24.00;22.00;;;;;10.45;100.00;100164.75;6307179;20;2833719;-55
2022/10/11 05:32:40;;;;;;;;;32.33;24.33;;;;;10.48;100.00;100161.03;6288052;20;3592894;-54
2022/10/11 05:35:09;;;;;;;;;43.67;33.67;;;;;10.30;100.00;100171.81;6320087;20;3602292;-54
2022/10/11 05:37:38;;;;;;;;;29.33;26.00;;;;;10.26;100.00;100172.84;6292055;20;3576263;-56
2022/10/11 05:40:07;;;;;;;;;28.00;23.00;;;;;10.21;100.00;100168.69;6286797;20;2853354;-54
2022/10/11 05:42:37;;;;;;;;;31.00;25.50;;;;;10.02;100.00;100172.31;6286377;20;2855417;-59
2022/10/11 05:45:07;;;;;;;;;20.00;18.50;;;;;10.06;100.00;100173.06;6288457;20;2837725;-59
2022/10/11 05:47:35;;;;;;;;;23.50;19.50;;;;;10.20;100.00;100170.50;6288688;20;2846046;-59
2022/10/11 05:50:05;;;;;;;;;21.50;18.50;;;;;10.36;100.00;100181.34;6285857;20;2829486;-59
2022/10/11 05:52:33;;;;;;;;;23.00;19.50;;;;;10.39;100.00;100177.63;6288611;20;2844034;-59
2022/10/11 05:55:03;;;;;;;;;20.00;19.50;;;;;10.55;100.00;100178.53;6287505;20;2835664;-59
2022/10/11 05:57:31;;;;;;;;;29.33;29.33;;;;;10.58;100.00;100180.19;6290412;20;3594042;-59
2022/10/11 06:00:01;;;;;;;;;37.67;34.00;;;;;10.74;100.00;100182.00;6286008;20;3615815;-59
2022/10/11 06:02:30;;;;;;;;;32.33;27.00;;;;;10.86;100.00;100187.63;6320456;20;3614798;-59
2022/10/11 06:04:58;;;;;;;;;28.00;24.00;;;;;10.86;100.00;100190.31;6288388;20;2839295;-59
2022/10/11 06:07:27;;;;;;;;;26.33;23.33;;;;;10.84;99.97;100198.44;6289621;20;3582869;-59
2022/10/11 06:09:55;;;;;;;;;24.50;24.00;;;;;10.74;100.00;100191.84;6287703;20;2850274;-59
2022/10/11 06:12:24;;;;;;;;;30.50;27.50;;;;;10.84;100.00;100198.44;6285062;20;2854942;-59
2022/10/11 06:14:54;;;;;;;;;30.33;26.33;;;;;10.94;100.00;100188.94;6287829;20;2854436;-59
2022/10/11 06:17:22;;;;;;;;;35.33;29.67;;;;;10.87;99.85;100197.41;6319032;20;3625232;-59
2022/10/11 06:19:51;;;;;;;;;29.00;29.00;;;;;10.87;99.90;100208.16;6289253;20;3589876;-59
2022/10/11 06:22:20;;;;;;;;;28.00;26.33;;;;;10.90;99.59;100207.97;6291254;20;3591891;-59
2022/10/11 06:24:48;;;;;;;;;27.00;24.00;;;;;10.95;99.72;100211.28;6286301;20;2849281;-59
2022/10/11 06:27:17;;;;;;;;;21.50;19.50;;;;;10.92;100.00;100212.31;6285239;20;2835744;-59
2022/10/11 06:29:46;;;;;;;;;24.00;19.50;;;;;11.01;98.54;100210.97;6287963;20;2843989;-59
2022/10/11 06:32:15;;;;;;;;;25.00;22.00;;;;;11.09;98.21;100224.00;6288084;20;2841967;-59
2022/10/11 06:34:44;;;;;;;;;27.33;21.00;;;;;11.21;97.14;100220.59;6287819;20;2851305;-59
2022/10/11 06:37:14;;;;;;;;;28.67;26.67;;;;;11.34;96.26;100216.28;6313931;20;2852346;-59
2022/10/11 06:39:42;;;;;;;;;36.67;28.67;;;;;11.39;95.50;100205.28;6321831;20;3623153;-59
2022/10/11 06:42:11;;;;;;;;;33.67;29.67;;;;;11.73;94.18;100224.88;6289299;20;3607586;-59
2022/10/11 06:44:41;;;;;;;;;31.67;30.33;;;;;13.97;86.58;100229.84;6286839;20;3599150;-60
2022/10/11 06:47:10;;;;;;;;;37.67;30.00;;;;;15.91;76.77;100236.84;6319205;20;3608519;-60
2022/10/11 06:49:38;;;;;;;;;30.33;28.67;;;;;16.18;72.92;100249.28;6289069;20;3602304;-60
2022/10/11 06:52:08;;;;;;;;;32.67;27.67;;;;;15.54;74.27;100239.53;6285002;20;3602313;-60
2022/10/11 06:54:37;;;;;;;;;41.67;32.67;;;;;14.42;78.54;100233.94;6317838;20;3595080;-60
2022/10/11 06:57:12;;;;;;;;;33.00;27.33;;;;;13.69;83.99;100238.88;6284772;20;3600234;-60
2022/10/11 06:59:41;;;;;;;;;25.00;22.00;;;;;13.62;84.02;100238.44;6320205;20;3561647;-59
2022/10/11 07:02:10;;;;;;;;;29.33;25.33;;;;;13.59;84.53;100239.50;6318007;20;2859672;-59
2022/10/11 07:04:39;;;;;;;;;22.33;21.00;;;;;13.71;84.57;100234.25;6320095;20;3574284;-60
2022/10/11 07:07:07;;;;;;;;;21.00;19.00;;;;;13.47;84.98;100240.28;6284051;20;3582487;-59
2022/10/11 07:09:36;;;;;;;;;24.00;24.00;;;;;13.68;85.13;100247.97;6282746;20;2840881;-59
2022/10/11 07:12:06;;;;;;;;;23.50;21.50;;;;;14.10;83.25;100243.38;6285330;20;2843990;-59
2022/10/11 07:14:34;;;;;;;;;23.00;21.50;;;;;14.31;82.71;100238.34;6284901;20;2844014;-59
2022/10/11 07:17:04;;;;;;;;;25.33;22.33;;;;;14.28;83.25;100240.28;6284039;20;2850519;-59
2022/10/11 07:19:33;;;;;;;;;23.67;20.00;;;;;14.55;83.50;100249.34;6321735;20;3584641;-59
2022/10/11 07:22:01;;;;;;;;;28.00;21.00;;;;;14.69;81.72;100247.44;6288191;20;3596054;-54
2022/10/11 07:24:30;;;;;;;;;26.00;21.00;;;;;14.65;83.00;100250.44;6284491;20;2832593;-56
2022/10/11 07:26:59;;;;;;;;;29.33;21.00;;;;;14.81;81.91;100242.13;6280723;20;2856583;-56
2022/10/11 07:29:27;;;;;;;;;23.00;22.00;;;;;14.81;81.32;100253.81;6316067;20;3456537;-52
2022/10/11 07:31:56;;;;;;;;;29.00;23.00;;;;;14.80;82.75;100248.53;6310428;20;2847157;-53
2022/10/11 07:34:25;;;;;;;;;21.00;21.00;;;;;15.64;79.17;100260.50;6280920;20;2844060;-56
2022/10/11 07:36:54;;;;;;;;;21.33;21.33;;;;;15.53;78.50;100251.34;6282043;20;3578500;-56
2022/10/11 07:39:22;;;;;;;;;25.67;24.33;;;;;15.57;79.92;100252.84;6281954;20;3589938;-52
2022/10/11 07:41:51;;;;;;;;;27.00;23.33;;;;;15.36;79.94;100257.13;6281231;20;3597130;-52
2022/10/11 07:44:20;;;;;;;;;27.00;25.00;;;;;15.49;78.59;100249.84;6314947;20;3602421;-54
2022/10/11 07:46:50;;;;;;;;;23.00;22.33;;;;;15.22;80.09;100251.81;6280313;20;2843513;-50
2022/10/11 07:49:18;;;;;;;;;23.00;23.00;;;;;15.35;80.79;100260.81;6314148;20;3587753;-54
2022/10/11 07:51:47;;;;;;;;;25.33;22.00;;;;;15.92;77.81;100254.81;6282047;20;3587826;-54
2022/10/11 07:54:15;;;;;;;;;27.67;23.00;;;;;15.87;78.74;100251.59;6279765;20;3578401;-52
2022/10/11 07:56:44;;;;;;;;;26.33;22.33;;;;;16.28;77.64;100249.47;6279473;20;3587813;-49
2022/10/11 07:59:13;;;;;;;;;23.33;23.33;;;;;15.80;78.70;100245.78;6281273;20;3597163;-53
2022/10/11 08:01:43;;;;;;;;;28.33;27.00;;;;;16.33;77.51;100247.25;6314201;20;2860834;-50
2022/10/11 08:04:11;;;;;;;;;27.67;27.67;;;;;15.70;79.76;100249.28;6314610;20;3595073;-54
2022/10/11 08:06:41;;;;;;;;;30.00;24.33;;;;;15.33;82.89;100251.94;6281894;20;3603483;-50
2022/10/11 08:09:11;;;;;;;;;31.33;29.33;;;;;15.28;84.81;100237.88;6283765;20;3600276;-53
2022/10/11 08:11:39;;;;;;;;;35.33;31.00;;;;;15.62;84.57;100240.84;6279476;20;3589936;-52
2022/10/11 08:14:10;;;;;;;;;28.00;24.00;;;;;16.10;80.87;100254.41;6283490;20;3577380;-50
2022/10/11 08:16:39;;;;;;;;;28.67;24.33;;;;;16.24;80.25;100255.13;6280194;20;3584663;-51
2022/10/11 08:19:09;;;;;;;;;26.00;26.00;;;;;15.93;81.04;100259.28;6282141;20;3597141;-52
2022/10/11 08:21:38;;;;;;;;;23.33;23.00;;;;;16.72;79.15;100270.44;6285442;20;3580625;-55
2022/10/11 08:24:07;;;;;;;;;15.00;11.50;;;;;16.75;78.38;100272.03;6285209;20;2492044;-54
2022/10/11 08:26:35;;;;;;;;;27.00;24.00;;;;;16.93;77.63;100267.03;6286682;20;2841054;-54
2022/10/11 08:29:05;;;;;;;;;24.33;24.00;;;;;16.92;76.88;100276.16;6286340;20;2854607;-56
2022/10/11 08:31:34;;;;;;;;;28.33;25.00;;;;;17.74;75.03;100272.19;6318820;20;3582697;-57
2022/10/11 08:34:04;;;;;;;;;25.33;22.33;;;;;17.34;75.45;100274.59;6284586;20;2842103;-54
2022/10/11 08:36:32;;;;;;;;;29.67;26.33;;;;;17.29;76.70;100266.81;6319109;20;3594053;-51
2022/10/11 08:39:01;;;;;;;;;31.67;27.00;;;;;17.71;76.63;100274.31;6288886;20;3608686;-55
2022/10/11 08:41:52;;;;;;;;;25.67;22.67;;;;;17.15;77.87;100266.22;6288098;20;3587801;-52
2022/10/11 08:44:41;;;;;;;;;34.33;31.00;;;;;17.14;79.40;100270.78;6287828;20;3603381;-50
2022/10/11 08:47:43;;;;;;;;;23.50;22.50;;;;;17.61;76.37;100274.19;6284481;20;2821223;-53
2022/10/11 08:50:21;;;;;;;;;29.00;25.67;;;;;17.04;78.32;100269.78;6287465;20;3592017;-51
2022/10/11 08:53:03;;;;;;;;;27.33;27.00;;;;;17.49;77.17;100276.06;6285341;20;3604415;-54
2022/10/11 08:55:50;;;;;;;;;26.67;25.33;;;;;17.58;75.88;100289.88;6282516;20;3591927;-51
2022/10/11 08:58:38;;;;;;;;;28.67;28.33;;;;;18.02;72.89;100282.69;6317733;20;3595055;-52
2022/10/11 09:01:19;;;;;;;;;34.67;29.33;;;;;18.05;73.69;100282.44;6287368;20;3602360;-54
2022/10/11 09:03:49;;;;;;;;;30.33;26.67;;;;;18.25;73.01;100275.34;6285491;20;3602409;-53
2022/10/11 09:06:59;;;;;;;;;32.25;27.25;;;;;17.91;74.60;100275.44;6284667;20;3611727;-53
2022/10/11 09:10:12;;;;;;;;;27.67;27.67;;;;;17.89;75.68;100278.25;6312287;20;3595066;-51
2022/10/11 09:13:17;;;;;;;;;37.00;32.00;;;;;17.94;74.72;100283.31;6284984;20;3549220;-51
2022/10/11 09:16:08;;;;;;;;;30.00;28.00;;;;;17.37;75.09;100287.06;6284585;20;2729567;-52
2022/10/11 09:19:14;;;;;;;;;34.00;30.67;;;;;17.71;73.81;100287.91;6319778;20;3600296;-53
2022/10/11 09:22:21;;;;;;;;;28.50;27.50;;;;;17.29;76.49;100291.22;6289249;20;2729573;-52
2022/10/11 09:25:18;;;;;;;;;29.67;28.00;;;;;17.60;75.13;100288.78;6319203;20;3589952;-54
2022/10/11 09:28:39;;;;;;;;;26.67;24.67;;;;;17.70;74.05;100284.31;6282199;20;3594009;-55
2022/10/11 09:31:11;;;;;;;;;33.33;28.00;;;;;18.28;73.01;100283.22;6315280;20;3619022;-59
2022/10/11 09:33:51;;;;;;;;;28.00;25.00;;;;;17.81;72.99;100279.91;6283183;20;3583617;-59
2022/10/11 09:36:46;;;;;;;;;29.00;25.00;;;;;17.93;74.82;100284.28;6285688;20;3553431;-59
2022/10/11 09:39:34;;;;;;;;;25.67;24.67;;;;;17.89;72.70;100289.13;6285094;20;3594055;-59
2022/10/11 09:42:07;;;;;;;;;30.00;25.33;;;;;18.21;73.22;100285.59;6278868;20;3606519;-59
2022/10/11 09:44:47;;;;;;;;;29.00;26.00;;;;;18.23;70.39;100293.63;6286227;20;3590939;-59
2022/10/11 09:47:35;;;;;;;;;31.33;28.67;;;;;18.57;69.43;100284.34;6280667;20;3605616;-58
2022/10/11 09:50:24;;;;;;;;;22.67;21.67;;;;;18.74;68.84;100290.19;6288164;20;3584675;-61
2022/10/11 09:52:58;;;;;;;;;25.00;25.00;;;;;19.05;67.89;100282.97;6284577;20;3584627;-59
2022/10/11 09:55:53;;;;;;;;;23.00;23.00;;;;;18.47;70.11;100282.53;6283500;20;3590998;-59
2022/10/11 09:58:28;;;;;;;;;23.00;23.00;;;;;18.73;70.34;100289.31;6285130;20;3585693;-60
2022/10/11 10:01:09;;;;;;;;;28.67;24.33;;;;;18.56;71.67;100284.44;6287016;20;3596248;-59
2022/10/11 10:03:43;;;;;;;;;37.00;32.00;;;;;18.59;71.63;100286.94;6288099;20;3610685;-59
2022/10/11 10:06:28;;;;;;;;;31.00;29.33;;;;;18.47;73.24;100288.81;6287908;20;3582538;-59
2022/10/11 10:09:29;;;;;;;;;30.67;27.67;;;;;18.35;73.24;100289.84;6287245;20;3577367;-59
2022/10/11 10:11:58;;;;;;;;;26.67;21.67;;;;;18.47;74.44;100277.94;6282145;20;3590948;-59
2022/10/11 10:14:29;;;;;;;;;28.00;24.67;;;;;18.73;73.08;100285.75;6285174;20;3605500;-60
2022/10/11 10:17:17;;;;;;;;;26.67;25.00;;;;;18.68;72.10;100282.56;6282872;20;3596178;-60
2022/10/11 10:19:53;;;;;;;;;31.50;27.50;;;;;18.20;72.37;100276.56;6283324;20;3610711;-60
2022/10/11 10:22:28;;;;;;;;;27.00;27.00;;;;;18.03;72.78;100282.53;6315616;20;3602499;-60
2022/10/11 10:25:02;;;;;;;;;26.00;26.00;;;;;18.28;72.04;100272.34;6282385;20;3586758;-57
2022/10/11 10:27:32;;;;;;;;;29.00;27.33;;;;;18.09;73.62;100279.34;6284185;20;3591909;-56
2022/10/11 10:30:06;;;;;;;;;29.00;26.00;;;;;18.14;73.20;100271.66;6286199;20;3606879;-55
2022/10/11 10:33:03;;;;;;;;;31.00;29.00;;;;;18.12;74.49;100276.38;6284502;20;3590922;-57
2022/10/11 10:35:54;;;;;;;;;23.00;23.00;;;;;18.48;72.69;100273.38;6282196;20;3597120;-59
2022/10/11 10:38:44;;;;;;;;;31.50;27.00;;;;;18.50;70.58;100277.69;6288291;20;3606511;-59
2022/10/11 10:41:19;;;;;;;;;32.67;26.00;;;;;18.59;70.53;100276.91;6313535;20;3609726;-59
2022/10/11 10:43:56;;;;;;;;;29.75;28.25;;;;;18.74;72.08;100273.84;6285577;20;3602351;-59
2022/10/11 10:46:52;;;;;;;;;29.33;26.67;;;;;18.73;72.50;100274.84;6312426;20;3604513;-59
2022/10/11 10:50:04;;;;;;;;;30.50;29.25;;;;;18.68;71.22;100275.25;6282748;20;3612890;-60
2022/10/11 10:53:42;;;;;;;;;32.20;30.60;;;;;18.55;72.60;100278.16;6289996;20;3596212;-60
2022/10/11 10:56:44;;;;;;;;;24.33;24.33;;;;;18.29;72.87;100264.06;6309986;20;3582620;-60
2022/10/11 10:59:44;;;;;;;;;17.33;14.67;;;;;18.01;71.91;100268.25;6338989;20;3541987;-60
2022/10/11 11:02:48;;;;;;;;;28.00;26.33;;;;;18.11;72.53;100266.47;6308606;20;3600324;-60
2022/10/11 11:05:57;;;;;;;;;28.33;26.67;;;;;18.34;74.50;100266.38;6310181;20;3604537;-60
2022/10/11 11:09:14;;;;;;;;;24.00;23.33;;;;;18.55;73.80;100263.69;6309446;20;3588841;-60
2022/10/11 11:12:00;;;;;;;;;27.00;26.00;;;;;18.26;72.10;100261.59;6309428;20;3580514;-60
2022/10/11 11:14:58;;;;;;;;;25.67;22.67;;;;;18.09;72.22;100267.59;6312689;20;3584621;-55
2022/10/11 11:18:09;;;;;;;;;28.67;27.00;;;;;18.58;71.91;100264.28;6312694;20;3603461;-55
2022/10/11 11:21:19;;;;;;;;;32.33;27.67;;;;;19.20;69.48;100264.44;6310307;20;3603447;-54
2022/10/11 11:24:05;;;;;;;;;28.67;27.67;;;;;19.77;66.25;100267.53;6306535;20;3596106;-52
2022/10/11 11:27:32;;;;;;;;;28.00;25.00;;;;;19.56;66.53;100265.72;6310212;20;3597176;-55
2022/10/11 11:30:11;;;;;;;;;27.67;27.33;;;;;19.66;66.22;100255.75;6311419;20;3597266;-55
2022/10/11 11:32:51;;;;;;;;;27.67;27.00;;;;;20.01;65.10;100264.44;6304350;20;3583725;-55
2022/10/11 11:35:45;;;;;;;;;28.33;27.67;;;;;19.57;66.79;100252.97;6312080;20;3595042;-53